Time;durP1;ratioP1;P1;durP2;ratioP2;P2;SDS_P1;SDS_P2;PMS_P1;PMS_P2;Temp;Humidity;BMP_temperature;BMP_pressure;BME280_temperature;BME280_humidity;BME280_pressure;Samples;Min_cycle;Max_cycle;Signal;HPM_P1;HPM_P2
2023/01/08 00:01:25;;;;;;;0.10;0.10;;;7.10;99.90;12.80;163505.00;;;;4976126;28;20201;-77
2023/01/08 00:03:54;;;;;;;0.10;0.10;;;7.10;99.90;12.80;163505.00;;;;4970299;28;20219;-77
2023/01/08 00:06:24;;;;;;;0.10;0.10;;;7.10;99.90;12.80;163505.00;;;;4975743;28;20209;-77
2023/01/08 00:08:52;;;;;;;0.10;0.10;;;7.10;99.90;12.80;163505.00;;;;4972074;28;20221;-77
2023/01/08 00:11:20;;;;;;;0.10;0.10;;;7.10;99.90;12.80;163505.00;;;;4979979;28;20209;-78
2023/01/08 00:13:47;;;;;;;0.10;0.10;;;7.10;99.90;12.80;163505.00;;;;4972451;28;20609;-77
2023/01/08 00:16:18;;;;;;;0.10;0.10;;;7.10;99.90;12.80;163505.00;;;;4979358;28;20217;-78
2023/01/08 00:18:47;;;;;;;0.10;0.10;;;7.10;99.90;12.80;163505.00;;;;4974493;28;20279;-77
2023/01/08 00:21:16;;;;;;;0.10;0.10;;;7.10;99.90;12.80;163505.00;;;;4969623;28;20201;-77
2023/01/08 00:23:45;;;;;;;0.10;0.10;;;7.10;99.90;12.80;163505.00;;;;4977122;28;20274;-78
2023/01/08 00:26:14;;;;;;;0.10;0.10;;;7.10;99.90;12.80;163505.00;;;;4976068;28;20240;-77
2023/01/08 00:28:42;;;;;;;0.10;0.10;;;7.10;99.90;12.80;163505.00;;;;4965358;28;20284;-77
2023/01/08 00:31:12;;;;;;;0.10;0.10;;;7.10;99.90;12.80;163505.00;;;;4974074;28;20212;-78
2023/01/08 00:33:41;;;;;;;0.10;0.10;;;7.10;99.90;12.80;163505.00;;;;4974221;28;20201;-80
2023/01/08 00:36:13;;;;;;;0.10;0.10;;;7.10;99.90;12.80;163505.00;;;;4976366;28;20603;-78
2023/01/08 00:38:44;;;;;;;0.10;0.10;;;7.10;99.90;12.80;163505.00;;;;4975024;28;20718;-78
2023/01/08 00:41:14;;;;;;;0.10;0.10;;;7.10;99.90;12.80;163505.00;;;;4975814;28;20205;-77
2023/01/08 00:43:42;;;;;;;0.10;0.10;;;7.00;99.90;12.80;163505.00;;;;4978784;28;20224;-78
2023/01/08 00:46:10;;;;;;;0.10;0.10;;;7.00;99.90;12.80;163505.00;;;;4982081;28;20289;-78
2023/01/08 00:48:38;;;;;;;0.10;0.10;;;7.00;99.90;12.80;163505.00;;;;4976775;28;20216;-78
2023/01/08 00:51:08;;;;;;;0.10;0.10;;;7.00;99.90;12.80;163505.00;;;;4969466;28;20342;-77
2023/01/08 00:53:37;;;;;;;0.10;0.10;;;7.00;99.90;12.80;163505.00;;;;4976870;28;20208;-79
2023/01/08 00:56:10;;;;;;;0.10;0.10;;;7.00;99.90;12.80;163505.00;;;;4979306;28;20263;-78
2023/01/08 00:58:38;;;;;;;0.10;0.10;;;7.00;99.90;12.80;163505.00;;;;4976910;28;20734;-77
2023/01/08 01:01:11;;;;;;;0.10;0.10;;;6.90;99.90;12.80;163505.00;;;;4955861;28;20237;-78
2023/01/08 01:03:39;;;;;;;0.10;0.10;;;7.00;99.90;12.80;163505.00;;;;4973842;28;20232;-78
2023/01/08 01:06:09;;;;;;;0.03;0.03;;;7.00;99.90;12.80;163505.00;;;;4980896;28;20632;-78
2023/01/08 01:08:36;;;;;;;0.10;0.10;;;7.00;99.90;12.80;163505.00;;;;4970818;28;20240;-78
2023/01/08 01:11:08;;;;;;;0.10;0.10;;;7.00;99.90;12.80;163505.00;;;;4977398;28;20197;-78
2023/01/08 01:13:37;;;;;;;0.10;0.10;;;7.00;99.90;12.80;163505.00;;;;4980406;28;20201;-77
2023/01/08 01:16:05;;;;;;;0.00;0.00;;;7.00;99.90;12.80;163505.00;;;;4973217;28;20227;-75
2023/01/08 01:18:33;;;;;;;0.10;0.10;;;7.00;99.90;12.80;163505.00;;;;4975644;28;20282;-79
2023/01/08 01:21:02;;;;;;;0.10;0.10;;;7.00;99.90;12.80;163505.00;;;;4980513;28;20216;-79
2023/01/08 01:23:29;;;;;;;0.00;0.00;;;7.00;99.90;12.80;163505.00;;;;4971677;28;20200;-79
2023/01/08 01:25:57;;;;;;;0.10;0.10;;;7.00;99.90;12.80;163505.00;;;;4980755;28;20262;-79
2023/01/08 01:28:27;;;;;;;0.10;0.10;;;7.00;99.90;12.80;163505.00;;;;4973562;28;20244;-78
2023/01/08 01:30:56;;;;;;;0.10;0.10;;;6.90;99.90;12.80;163505.00;;;;4976748;28;20231;-77
2023/01/08 01:33:25;;;;;;;0.10;0.10;;;6.90;99.90;12.80;163505.00;;;;4974722;28;20203;-79
2023/01/08 01:36:03;;;;;;;0.10;0.10;;;6.90;99.90;12.80;163505.00;;;;4977642;28;20232;-80
2023/01/08 01:38:31;;;;;;;0.10;0.10;;;7.00;99.90;12.80;163505.00;;;;4971114;28;20702;-79
2023/01/08 01:41:01;;;;;;;0.10;0.10;;;7.00;99.90;12.80;163505.00;;;;4976776;28;20197;-76
2023/01/08 01:43:38;;;;;;;0.08;0.08;;;7.00;99.90;12.80;163505.00;;;;4978849;28;20713;-77
2023/01/08 01:46:20;;;;;;;0.10;0.10;;;7.00;99.90;12.80;163505.00;;;;4973177;28;20267;-76
2023/01/08 01:48:51;;;;;;;0.10;0.10;;;7.00;99.90;12.80;163505.00;;;;4971801;28;20232;-78
2023/01/08 01:51:20;;;;;;;0.10;0.10;;;7.00;99.90;12.80;163505.00;;;;4967140;28;20536;-76
2023/01/08 01:53:49;;;;;;;0.10;0.10;;;6.90;99.90;12.80;163505.00;;;;4970853;28;20252;-77
2023/01/08 01:56:17;;;;;;;0.10;0.10;;;6.90;99.90;12.80;163505.00;;;;4973532;28;20229;-78
2023/01/08 01:58:47;;;;;;;0.10;0.10;;;6.90;99.90;12.80;163505.00;;;;4973622;28;20217;-75
2023/01/08 02:01:15;;;;;;;0.10;0.10;;;6.90;99.90;12.80;163505.00;;;;4974308;28;20197;-77
2023/01/08 02:03:43;;;;;;;0.10;0.10;;;6.90;99.90;12.80;163505.00;;;;4973101;28;20280;-78
2023/01/08 02:06:23;;;;;;;0.10;0.10;;;6.90;99.90;12.80;163505.00;;;;4976029;28;20227;-77
2023/01/08 02:09:01;;;;;;;0.10;0.10;;;6.90;99.90;12.80;163505.00;;;;4977838;28;20704;-78
2023/01/08 02:11:44;;;;;;;0.10;0.10;;;6.90;99.90;12.80;163505.00;;;;4972744;28;20252;-78
2023/01/08 02:14:22;;;;;;;0.10;0.10;;;6.80;99.90;12.80;163505.00;;;;4973664;28;20200;-76
2023/01/08 02:16:59;;;;;;;0.10;0.10;;;6.90;99.90;12.80;163505.00;;;;4974843;28;20224;-76
2023/01/08 02:19:40;;;;;;;0.10;0.10;;;6.80;99.90;12.80;163505.00;;;;4971291;28;20554;-77
2023/01/08 02:22:24;;;;;;;0.10;0.10;;;6.80;99.90;12.80;163505.00;;;;4968559;28;20460;-76
2023/01/08 02:25:01;;;;;;;0.10;0.10;;;6.90;99.90;12.80;163505.00;;;;4974847;28;20566;-77
2023/01/08 02:27:35;;;;;;;0.10;0.10;;;6.90;99.90;12.80;163505.00;;;;4970033;28;20279;-77
2023/01/08 02:30:06;;;;;;;0.10;0.10;;;7.00;99.90;12.80;163505.00;;;;4976456;28;20281;-78
2023/01/08 02:32:38;;;;;;;0.10;0.10;;;7.00;99.90;12.80;163505.00;;;;4948799;28;20268;-78
2023/01/08 02:35:08;;;;;;;0.10;0.10;;;6.90;99.90;12.80;163505.00;;;;4982206;28;20235;-79
2023/01/08 02:37:37;;;;;;;0.10;0.10;;;6.90;99.90;12.80;163505.00;;;;4977399;28;20229;-79
2023/01/08 02:40:25;;;;;;;0.10;0.10;;;6.80;99.90;12.80;163505.00;;;;4981967;28;20204;-78
2023/01/08 02:43:01;;;;;;;0.10;0.10;;;6.80;99.90;12.80;163505.00;;;;4973662;28;20197;-78
2023/01/08 02:45:42;;;;;;;0.10;0.10;;;6.80;99.90;12.80;163505.00;;;;4973627;28;20196;-78
2023/01/08 02:48:14;;;;;;;0.10;0.10;;;6.70;99.90;12.80;163505.00;;;;4976052;28;20229;-79
2023/01/08 02:50:51;;;;;;;0.10;0.10;;;6.70;99.90;12.80;163505.00;;;;4978571;28;20216;-78
2023/01/08 02:53:24;;;;;;;0.10;0.10;;;6.70;99.90;12.80;163505.00;;;;4981558;28;20267;-79
2023/01/08 02:55:58;;;;;;;0.10;0.10;;;6.60;99.90;12.80;163505.00;;;;4980247;28;20216;-78
2023/01/08 02:58:33;;;;;;;0.10;0.10;;;6.60;99.90;12.80;163505.00;;;;4977188;28;20217;-78
2023/01/08 03:01:04;;;;;;;0.10;0.10;;;6.60;99.90;12.80;163505.00;;;;4962008;28;20208;-78
2023/01/08 03:03:34;;;;;;;0.10;0.10;;;6.60;99.90;12.80;163505.00;;;;4978436;28;20193;-79
2023/01/08 03:06:07;;;;;;;0.10;0.10;;;6.60;99.90;12.80;163505.00;;;;4978629;28;20200;-78
2023/01/08 03:08:41;;;;;;;0.10;0.10;;;6.60;99.90;12.80;163505.00;;;;4978535;28;20221;-79
2023/01/08 03:11:13;;;;;;;0.08;0.08;;;6.60;99.90;12.80;163505.00;;;;4979724;28;20269;-78
2023/01/08 03:13:50;;;;;;;0.10;0.10;;;6.60;99.90;12.80;163505.00;;;;4981616;28;20240;-78
2023/01/08 03:16:25;;;;;;;0.10;0.10;;;6.60;99.90;12.80;163505.00;;;;4974907;28;20279;-78
2023/01/08 03:19:03;;;;;;;0.10;0.10;;;6.50;99.90;12.80;163505.00;;;;4977348;28;20209;-78
2023/01/08 03:21:33;;;;;;;0.10;0.10;;;6.50;99.90;12.80;163505.00;;;;4979381;28;20654;-78
2023/01/08 03:24:04;;;;;;;0.10;0.10;;;6.50;99.90;12.80;163505.00;;;;4977915;28;20201;-78
2023/01/08 03:26:34;;;;;;;0.10;0.10;;;6.50;99.90;12.80;163505.00;;;;4981751;28;20228;-78
2023/01/08 03:29:08;;;;;;;0.05;0.05;;;6.40;99.90;12.80;163505.00;;;;4977222;28;20236;-78
2023/01/08 03:31:36;;;;;;;0.10;0.10;;;6.40;99.90;12.80;163505.00;;;;4981680;28;20208;-78
2023/01/08 03:34:05;;;;;;;0.00;0.00;;;6.50;99.90;12.80;163505.00;;;;4977127;28;20205;-78
2023/01/08 03:36:38;;;;;;;0.03;0.03;;;6.50;99.90;12.80;163505.00;;;;4974972;28;20268;-78
2023/01/08 03:39:15;;;;;;;0.10;0.10;;;6.50;99.90;12.80;163505.00;;;;4977083;28;20224;-78
2023/01/08 03:41:45;;;;;;;0.10;0.10;;;6.50;99.90;12.80;163505.00;;;;4977748;28;20220;-78
2023/01/08 03:44:15;;;;;;;0.10;0.10;;;6.50;99.90;12.80;163505.00;;;;4978641;28;20201;-78
2023/01/08 03:46:50;;;;;;;0.10;0.10;;;6.50;99.90;12.80;163505.00;;;;4979908;28;20228;-78
2023/01/08 03:49:21;;;;;;;0.10;0.10;;;6.50;99.90;12.80;163505.00;;;;4979429;28;20303;-78
2023/01/08 03:51:49;;;;;;;0.10;0.10;;;6.50;99.90;12.80;163505.00;;;;4984469;28;20205;-78
2023/01/08 03:54:20;;;;;;;0.10;0.10;;;6.50;99.90;12.80;163505.00;;;;4962838;28;20662;-77
2023/01/08 03:56:48;;;;;;;0.10;0.10;;;6.50;99.90;12.80;163505.00;;;;4966192;28;20216;-78
2023/01/08 03:59:17;;;;;;;0.10;0.10;;;6.50;99.90;12.80;163505.00;;;;4977317;28;20840;-78
2023/01/08 04:01:45;;;;;;;0.10;0.10;;;6.50;99.90;12.80;163505.00;;;;4983888;28;20248;-75
2023/01/08 04:04:14;;;;;;;0.10;0.10;;;6.50;99.90;12.80;163505.00;;;;4994437;28;21274;-76
2023/01/08 04:06:42;;;;;;;0.10;0.10;;;6.60;99.90;12.80;163505.00;;;;4997435;28;20209;-76
2023/01/08 04:09:10;;;;;;;0.10;0.10;;;6.60;99.90;12.80;163505.00;;;;4985472;28;20236;-79
2023/01/08 04:11:38;;;;;;;0.10;0.10;;;6.60;99.90;12.80;163505.00;;;;4978381;28;20208;-78
2023/01/08 04:14:06;;;;;;;0.10;0.10;;;6.60;99.90;12.80;163505.00;;;;4977787;28;20776;-78
2023/01/08 04:16:36;;;;;;;0.10;0.10;;;6.60;99.90;12.80;163505.00;;;;4980301;28;20193;-77
2023/01/08 04:19:04;;;;;;;0.10;0.10;;;6.60;99.90;12.80;163505.00;;;;4975149;28;20642;-78
2023/01/08 04:21:32;;;;;;;0.10;0.10;;;6.60;99.90;12.80;163505.00;;;;4973659;28;20201;-78
2023/01/08 04:24:00;;;;;;;0.10;0.10;;;6.60;99.90;12.80;163505.00;;;;4981064;28;20189;-77
2023/01/08 04:26:28;;;;;;;0.10;0.10;;;6.60;99.90;12.80;163505.00;;;;4978049;28;20193;-77
2023/01/08 04:28:56;;;;;;;0.10;0.10;;;6.60;99.90;12.80;163505.00;;;;4977578;28;20622;-78
2023/01/08 04:31:24;;;;;;;0.10;0.10;;;6.60;99.90;12.80;163505.00;;;;4982297;28;20193;-78
2023/01/08 04:33:53;;;;;;;0.10;0.10;;;6.60;99.90;12.80;163505.00;;;;4961316;28;20208;-78
2023/01/08 04:36:21;;;;;;;0.10;0.10;;;6.50;99.90;12.80;163505.00;;;;4982796;28;20232;-78
2023/01/08 04:38:49;;;;;;;0.10;0.10;;;6.50;99.90;12.80;163505.00;;;;4985263;28;20252;-76
2023/01/08 04:41:18;;;;;;;0.10;0.10;;;6.40;99.90;12.80;163505.00;;;;4996208;28;20208;-77
2023/01/08 04:43:46;;;;;;;0.10;0.10;;;6.40;99.90;12.80;163505.00;;;;4994958;28;20224;-76
2023/01/08 04:46:13;;;;;;;0.10;0.10;;;6.40;99.90;12.80;163505.00;;;;4999164;28;20859;-77
2023/01/08 04:48:41;;;;;;;0.10;0.10;;;6.40;99.90;12.80;163505.00;;;;4996316;28;20304;-75
2023/01/08 04:51:11;;;;;;;0.10;0.10;;;6.40;99.90;12.80;163505.00;;;;5001771;28;20228;-75
2023/01/08 04:53:39;;;;;;;0.10;0.10;;;6.40;99.90;12.80;163505.00;;;;5000280;28;20487;-74
2023/01/08 04:56:10;;;;;;;0.10;0.10;;;6.40;99.90;12.80;163505.00;;;;5006607;28;20303;-74
2023/01/08 04:58:39;;;;;;;0.10;0.10;;;6.40;99.90;12.80;163505.00;;;;4991738;28;20209;-74
2023/01/08 05:01:13;;;;;;;0.10;0.10;;;6.30;99.90;12.80;163505.00;;;;4998969;28;20214;-74
2023/01/08 05:03:41;;;;;;;0.10;0.10;;;6.30;99.90;12.80;163505.00;;;;4996790;28;20902;-74
2023/01/08 05:06:10;;;;;;;0.10;0.10;;;6.40;99.90;12.80;163505.00;;;;4998011;28;20193;-74
2023/01/08 05:08:38;;;;;;;0.10;0.10;;;6.40;99.90;12.80;163505.00;;;;4997549;28;20208;-75
2023/01/08 05:11:06;;;;;;;0.10;0.10;;;6.40;99.90;12.80;163505.00;;;;4991782;28;20204;-78
2023/01/08 05:13:34;;;;;;;0.10;0.10;;;6.40;99.90;12.80;163505.00;;;;4973162;28;20577;-80
2023/01/08 05:16:02;;;;;;;0.10;0.10;;;6.50;99.90;12.80;163505.00;;;;4974773;28;20200;-79
2023/01/08 05:18:31;;;;;;;0.10;0.10;;;6.50;99.90;12.80;163505.00;;;;4974128;28;20678;-79
2023/01/08 05:21:01;;;;;;;0.10;0.10;;;6.50;99.90;12.80;163505.00;;;;4977192;28;20205;-79
2023/01/08 05:23:32;;;;;;;0.10;0.10;;;6.50;99.90;12.80;163505.00;;;;4975289;28;20670;-79
2023/01/08 05:26:01;;;;;;;0.10;0.10;;;6.50;99.90;12.80;163505.00;;;;4973558;28;20217;-78
2023/01/08 05:28:30;;;;;;;0.10;0.10;;;6.50;99.90;12.80;163505.00;;;;4976688;28;20236;-79
2023/01/08 05:30:58;;;;;;;0.10;0.10;;;6.50;99.90;12.80;163505.00;;;;4976530;28;20201;-79
2023/01/08 05:33:26;;;;;;;0.10;0.10;;;6.50;99.90;12.80;163505.00;;;;4970841;28;20654;-79
2023/01/08 05:35:55;;;;;;;0.10;0.10;;;6.60;99.90;12.80;163505.00;;;;4977768;28;20193;-78
2023/01/08 05:38:23;;;;;;;0.10;0.10;;;6.50;99.90;12.80;163505.00;;;;4977633;28;20253;-79
2023/01/08 05:40:53;;;;;;;0.10;0.10;;;6.50;99.90;12.80;163505.00;;;;4975352;28;20205;-79
2023/01/08 05:43:21;;;;;;;0.10;0.10;;;6.50;99.90;12.80;163505.00;;;;4974687;28;20200;-79
2023/01/08 05:45:49;;;;;;;0.10;0.10;;;6.50;99.90;12.80;163505.00;;;;4978581;28;20197;-79
2023/01/08 05:48:18;;;;;;;0.10;0.10;;;6.50;99.90;12.80;163505.00;;;;4975782;28;20224;-80
2023/01/08 05:50:49;;;;;;;0.10;0.10;;;6.50;99.90;12.80;163505.00;;;;4982382;28;20197;-79
2023/01/08 05:53:17;;;;;;;0.10;0.10;;;6.50;99.90;12.80;163505.00;;;;4978197;28;20740;-76
2023/01/08 05:55:45;;;;;;;0.10;0.10;;;6.50;99.90;12.80;163505.00;;;;4979226;28;20205;-79
2023/01/08 05:58:17;;;;;;;0.10;0.10;;;6.40;99.90;12.80;163505.00;;;;4983222;28;20235;-77
2023/01/08 06:00:46;;;;;;;0.10;0.10;;;6.30;99.90;12.80;163505.00;;;;4979948;28;20201;-79
2023/01/08 06:03:13;;;;;;;0.10;0.10;;;6.30;99.90;12.80;163505.00;;;;4974518;28;21041;-80
2023/01/08 06:05:41;;;;;;;0.00;0.00;;;6.20;99.90;12.80;163505.00;;;;4981364;28;20209;-79
2023/01/08 06:08:09;;;;;;;0.10;0.10;;;6.20;99.90;12.80;163505.00;;;;4979832;28;20302;-79
2023/01/08 06:10:38;;;;;;;0.10;0.10;;;6.20;99.90;12.80;163505.00;;;;4958135;28;20256;-78
2023/01/08 06:13:07;;;;;;;0.10;0.10;;;6.20;99.90;12.80;163505.00;;;;4980484;28;20197;-79
2023/01/08 06:15:38;;;;;;;0.10;0.10;;;6.20;99.90;12.80;163505.00;;;;4978801;28;20194;-79
2023/01/08 06:18:06;;;;;;;0.00;0.00;;;6.30;99.90;12.80;163505.00;;;;4975839;28;20729;-79
2023/01/08 06:20:34;;;;;;;0.10;0.10;;;6.30;99.90;12.80;163505.00;;;;4976732;28;20202;-79
2023/01/08 06:23:02;;;;;;;0.10;0.10;;;6.30;99.90;12.80;163505.00;;;;4981659;28;20208;-79
2023/01/08 06:25:30;;;;;;;0.10;0.10;;;6.40;99.90;12.80;163505.00;;;;4975947;28;20196;-79
2023/01/08 06:27:58;;;;;;;0.10;0.10;;;6.40;99.90;12.80;163505.00;;;;4980002;28;20204;-79
2023/01/08 06:30:26;;;;;;;0.10;0.10;;;6.50;99.90;12.80;163505.00;;;;4976127;28;20198;-77
2023/01/08 06:32:57;;;;;;;0.10;0.10;;;6.50;99.90;12.80;163505.00;;;;4979011;28;20212;-75
2023/01/08 06:35:26;;;;;;;0.10;0.10;;;6.50;99.90;12.80;163505.00;;;;4979714;28;20321;-79
2023/01/08 06:37:55;;;;;;;0.10;0.10;;;6.60;99.90;12.80;163505.00;;;;4974358;28;20197;-79
2023/01/08 06:40:23;;;;;;;0.10;0.10;;;6.60;99.90;12.80;163505.00;;;;4978322;28;20198;-79
2023/01/08 06:42:51;;;;;;;0.10;0.10;;;6.70;99.90;12.80;163505.00;;;;4979619;28;20374;-80
2023/01/08 06:45:20;;;;;;;0.10;0.10;;;6.70;99.90;12.80;163505.00;;;;4978151;28;20264;-79
2023/01/08 06:47:48;;;;;;;0.00;0.00;;;6.70;99.90;12.80;163505.00;;;;4981010;28;20298;-80
2023/01/08 06:50:17;;;;;;;0.10;0.10;;;6.70;99.90;12.80;163505.00;;;;4983999;28;20259;-80
2023/01/08 06:52:53;;;;;;;0.10;0.10;;;6.80;99.90;12.80;163505.00;;;;4985568;28;20193;-80
2023/01/08 06:55:21;;;;;;;0.10;0.10;;;6.80;99.90;12.80;163505.00;;;;4977689;28;20220;-78
2023/01/08 06:57:54;;;;;;;0.10;0.10;;;6.80;99.90;12.80;163505.00;;;;4974230;28;20205;-80
2023/01/08 07:00:24;;;;;;;0.10;0.10;;;6.80;99.90;12.80;163505.00;;;;4977102;28;20293;-79
2023/01/08 07:02:53;;;;;;;0.03;0.03;;;6.80;99.90;12.80;163505.00;;;;4975972;28;20208;-80
2023/01/08 07:05:23;;;;;;;0.10;0.10;;;6.80;99.90;12.80;163505.00;;;;4975855;28;20581;-79
2023/01/08 07:07:51;;;;;;;0.10;0.10;;;6.80;99.90;12.80;163505.00;;;;4966704;28;20204;-79
2023/01/08 07:10:19;;;;;;;0.05;0.05;;;6.70;99.90;12.80;163505.00;;;;4975308;28;20202;-80
2023/01/08 07:12:48;;;;;;;0.10;0.10;;;6.70;99.90;12.80;163505.00;;;;4986600;28;20200;-80
2023/01/08 07:15:16;;;;;;;0.10;0.10;;;6.60;99.90;12.80;163505.00;;;;4980553;28;20201;-79
2023/01/08 07:17:44;;;;;;;0.10;0.10;;;6.60;99.90;12.80;163505.00;;;;4954464;28;20217;-80
2023/01/08 07:20:12;;;;;;;0.10;0.10;;;6.60;99.90;12.80;163505.00;;;;4981484;28;20751;-79
2023/01/08 07:22:41;;;;;;;0.00;0.00;;;6.60;99.90;12.80;163505.00;;;;4984355;28;20204;-77
2023/01/08 07:25:10;;;;;;;0.10;0.10;;;6.60;99.90;12.80;163505.00;;;;4980051;28;20200;-80
2023/01/08 07:27:38;;;;;;;0.10;0.10;;;6.50;99.90;12.80;163505.00;;;;4976004;28;20193;-80
2023/01/08 07:30:08;;;;;;;0.10;0.10;;;6.50;99.90;12.80;163505.00;;;;4979249;28;20216;-80
2023/01/08 07:32:59;;;;;;;0.10;0.10;;;6.50;99.90;12.80;163505.00;;;;4979071;28;20593;-80
2023/01/08 07:35:28;;;;;;;0.10;0.10;;;6.50;99.90;12.80;163505.00;;;;4981954;28;20672;-79
2023/01/08 07:37:57;;;;;;;0.10;0.10;;;6.40;99.90;12.80;163505.00;;;;4978103;28;20378;-80
2023/01/08 07:40:25;;;;;;;0.10;0.10;;;6.40;99.90;12.80;163505.00;;;;4979270;28;20220;-78
2023/01/08 07:43:00;;;;;;;0.08;0.08;;;6.40;99.90;12.80;163505.00;;;;4983247;28;20204;-78
2023/01/08 07:45:29;;;;;;;0.10;0.10;;;6.40;99.90;12.80;163505.00;;;;4983013;28;20632;-78
2023/01/08 07:47:58;;;;;;;0.10;0.10;;;6.40;99.90;12.80;163505.00;;;;4984100;28;20225;-78
2023/01/08 07:50:27;;;;;;;0.10;0.10;;;6.40;99.90;12.80;163505.00;;;;4989574;28;20209;-79
2023/01/08 07:52:59;;;;;;;0.10;0.10;;;6.40;99.90;12.80;163505.00;;;;4986106;28;20200;-80
2023/01/08 07:55:30;;;;;;;0.10;0.10;;;6.40;99.90;12.80;163505.00;;;;4978993;28;20259;-80
2023/01/08 07:57:59;;;;;;;0.10;0.10;;;6.40;99.90;12.80;163505.00;;;;4979849;28;20192;-80
2023/01/08 08:00:30;;;;;;;0.10;0.10;;;6.40;99.90;12.80;163505.00;;;;4981564;28;20698;-77
2023/01/08 08:03:03;;;;;;;0.10;0.10;;;6.30;99.90;12.80;163505.00;;;;4975560;28;20208;-78
2023/01/08 08:05:33;;;;;;;0.10;0.10;;;6.40;99.90;12.80;163505.00;;;;4976914;28;20220;-79
2023/01/08 08:08:08;;;;;;;0.10;0.10;;;6.40;99.90;12.80;163505.00;;;;4980155;28;20225;-78
2023/01/08 08:10:36;;;;;;;0.10;0.10;;;6.40;99.90;12.80;163505.00;;;;4978927;28;20228;-79
2023/01/08 08:13:05;;;;;;;0.10;0.10;;;6.40;99.90;12.80;163505.00;;;;4984002;28;20193;-79
2023/01/08 08:15:34;;;;;;;0.10;0.10;;;6.40;99.90;12.80;163505.00;;;;4994261;28;20189;-74
2023/01/08 08:18:03;;;;;;;0.10;0.10;;;6.50;99.90;12.80;163505.00;;;;4997650;28;20221;-74
2023/01/08 08:20:31;;;;;;;0.10;0.10;;;6.50;99.90;12.80;163505.00;;;;4997009;28;20220;-80
2023/01/08 08:23:06;;;;;;;0.10;0.10;;;6.50;99.90;12.80;163505.00;;;;4979788;28;20196;-78
2023/01/08 08:25:36;;;;;;;0.10;0.10;;;6.50;99.90;12.80;163505.00;;;;4959749;28;20205;-78
2023/01/08 08:28:05;;;;;;;0.10;0.10;;;6.50;99.90;12.80;163505.00;;;;4981193;28;20232;-77
2023/01/08 08:30:35;;;;;;;0.10;0.10;;;6.60;99.90;12.80;163505.00;;;;4981746;28;20352;-78
2023/01/08 08:33:06;;;;;;;0.10;0.10;;;6.60;99.90;12.80;163505.00;;;;4975209;28;20783;-77
2023/01/08 08:35:35;;;;;;;0.10;0.10;;;6.60;99.90;12.80;163505.00;;;;4978451;28;20215;-76
2023/01/08 08:38:05;;;;;;;0.10;0.10;;;6.60;99.90;12.80;163505.00;;;;4973882;28;20272;-77
2023/01/08 08:40:33;;;;;;;0.10;0.10;;;6.60;99.90;12.80;163505.00;;;;4972566;28;20716;-77
2023/01/08 08:43:04;;;;;;;0.10;0.10;;;6.60;99.90;12.80;163505.00;;;;4967108;28;20370;-77
2023/01/08 08:45:32;;;;;;;0.10;0.10;;;6.50;99.90;12.80;163505.00;;;;4975503;28;20244;-78
2023/01/08 08:48:00;;;;;;;0.10;0.10;;;6.50;99.90;12.80;163505.00;;;;4972227;28;20196;-77
2023/01/08 08:50:28;;;;;;;0.10;0.10;;;6.50;99.90;12.80;163505.00;;;;4976179;28;20200;-76
2023/01/08 08:52:59;;;;;;;0.10;0.10;;;6.50;99.90;12.80;163505.00;;;;4976142;28;20785;-77
2023/01/08 08:55:29;;;;;;;0.10;0.10;;;6.50;99.90;12.80;163505.00;;;;4978603;28;20217;-77
2023/01/08 08:58:04;;;;;;;0.10;0.10;;;6.40;99.90;12.80;163505.00;;;;4976134;28;20665;-77
2023/01/08 09:00:32;;;;;;;0.10;0.10;;;6.30;99.90;12.80;163505.00;;;;4962291;28;20236;-77
2023/01/08 09:03:00;;;;;;;0.10;0.10;;;6.30;99.90;12.80;163505.00;;;;4972797;28;20201;-75
2023/01/08 09:05:29;;;;;;;0.10;0.10;;;6.30;99.90;12.80;163505.00;;;;4975913;28;20228;-78
2023/01/08 09:07:57;;;;;;;0.10;0.10;;;6.30;99.90;12.80;163505.00;;;;4976947;28;20205;-78
2023/01/08 09:10:25;;;;;;;0.10;0.10;;;6.20;99.90;12.80;163505.00;;;;4977086;28;20209;-75
2023/01/08 09:12:54;;;;;;;0.10;0.10;;;6.20;99.90;12.80;163505.00;;;;4973994;28;20205;-75
2023/01/08 09:15:23;;;;;;;0.10;0.10;;;6.20;99.90;12.80;163505.00;;;;4965141;28;20265;-77
2023/01/08 09:17:55;;;;;;;0.10;0.10;;;6.20;99.90;12.80;163505.00;;;;4970940;28;20398;-77
2023/01/08 09:20:23;;;;;;;0.10;0.10;;;6.20;99.90;12.80;163505.00;;;;4973414;28;20542;-77
2023/01/08 09:22:51;;;;;;;0.10;0.10;;;6.20;99.90;12.80;163505.00;;;;4971286;28;20202;-77
2023/01/08 09:25:20;;;;;;;0.05;0.05;;;6.30;99.90;12.80;163505.00;;;;4976226;28;20261;-76
2023/01/08 09:27:48;;;;;;;0.10;0.10;;;6.30;99.90;12.80;163505.00;;;;4973087;28;20193;-77
2023/01/08 09:30:17;;;;;;;0.10;0.10;;;6.30;99.90;12.80;163505.00;;;;4972293;28;20204;-79
2023/01/08 09:32:45;;;;;;;0.10;0.10;;;6.30;99.90;12.80;163505.00;;;;4982561;28;20244;-80
2023/01/08 09:35:13;;;;;;;0.10;0.10;;;6.30;99.90;12.80;163505.00;;;;4982379;28;20712;-77
2023/01/08 09:37:41;;;;;;;0.10;0.10;;;6.40;99.90;12.80;163505.00;;;;4972944;28;20260;-78
2023/01/08 09:40:16;;;;;;;0.10;0.10;;;6.30;99.90;12.80;163505.00;;;;4967522;28;20267;-77
2023/01/08 09:42:44;;;;;;;0.10;0.10;;;6.30;99.90;12.80;163505.00;;;;4984756;28;20602;-76
2023/01/08 09:45:26;;;;;;;0.10;0.10;;;6.30;99.90;12.80;163505.00;;;;4979042;28;20232;-77
2023/01/08 09:47:58;;;;;;;0.00;0.00;;;6.30;99.90;12.80;163505.00;;;;4973923;28;20197;-77
2023/01/08 09:50:29;;;;;;;0.10;0.10;;;6.30;99.90;12.80;163505.00;;;;4973740;28;20622;-77
2023/01/08 09:52:58;;;;;;;0.10;0.10;;;6.30;99.90;12.80;163505.00;;;;4990091;28;20726;-77
2023/01/08 09:55:33;;;;;;;0.10;0.10;;;6.40;99.90;12.80;163505.00;;;;4988186;28;20201;-75
2023/01/08 09:58:02;;;;;;;0.10;0.10;;;6.40;99.90;12.80;163505.00;;;;4974848;28;20733;-77
2023/01/08 10:00:34;;;;;;;0.10;0.10;;;6.50;99.90;12.80;163505.00;;;;4993063;28;20307;-77
2023/01/08 10:03:02;;;;;;;0.10;0.10;;;6.50;99.90;12.80;163505.00;;;;4987847;28;20229;-74
2023/01/08 10:05:30;;;;;;;0.10;0.10;;;6.50;99.90;12.80;163505.00;;;;4988934;28;20196;-77
2023/01/08 10:07:58;;;;;;;0.10;0.10;;;6.50;99.90;12.80;163505.00;;;;4988209;28;20201;-77
2023/01/08 10:10:30;;;;;;;0.10;0.10;;;6.60;99.90;12.80;163505.00;;;;4992852;28;20209;-78
2023/01/08 10:12:59;;;;;;;0.10;0.10;;;6.70;99.90;12.80;163505.00;;;;4978332;28;20223;-77
2023/01/08 10:15:27;;;;;;;0.10;0.10;;;6.70;99.90;12.80;163505.00;;;;4971777;28;20671;-77
2023/01/08 10:18:02;;;;;;;0.10;0.10;;;6.80;99.90;12.80;163505.00;;;;4975374;28;20209;-76
2023/01/08 10:20:32;;;;;;;0.10;0.10;;;6.80;99.90;12.80;163505.00;;;;4978285;28;20225;-78
2023/01/08 10:23:11;;;;;;;0.10;0.10;;;6.90;99.90;12.80;163505.00;;;;4967450;28;20226;-77
2023/01/08 10:25:53;;;;;;;0.10;0.10;;;6.90;99.90;12.80;163505.00;;;;4974677;28;20197;-76
2023/01/08 10:28:24;;;;;;;0.10;0.10;;;7.00;99.90;12.80;163505.00;;;;4975763;28;20272;-78
2023/01/08 10:30:58;;;;;;;0.10;0.10;;;7.00;99.90;12.80;163505.00;;;;4954170;28;20591;-77
2023/01/08 10:33:37;;;;;;;0.10;0.10;;;7.00;99.90;12.80;163505.00;;;;4977547;28;20205;-77
2023/01/08 10:36:11;;;;;;;0.10;0.10;;;7.00;99.90;12.80;163505.00;;;;4979210;28;20193;-76
2023/01/08 10:38:49;;;;;;;0.10;0.10;;;7.00;99.90;12.80;163505.00;;;;4978498;28;20753;-79
2023/01/08 10:41:18;;;;;;;0.10;0.10;;;7.00;99.90;12.80;163505.00;;;;4982403;28;20701;-79
2023/01/08 10:43:54;;;;;;;0.10;0.10;;;7.00;99.90;12.80;163505.00;;;;4984825;28;20197;-78
2023/01/08 10:46:25;;;;;;;0.10;0.10;;;7.00;99.90;12.80;163505.00;;;;4977339;28;20686;-78
2023/01/08 10:48:58;;;;;;;0.10;0.10;;;7.10;99.90;12.80;163505.00;;;;4975324;28;20235;-73
2023/01/08 10:51:29;;;;;;;0.10;0.10;;;7.10;99.90;12.80;163505.00;;;;4974877;28;20205;-75
2023/01/08 10:54:01;;;;;;;0.10;0.10;;;7.10;99.90;12.80;163505.00;;;;4975720;28;20573;-76
2023/01/08 10:56:40;;;;;;;0.10;0.10;;;7.20;99.90;12.80;163505.00;;;;4975395;28;20201;-74
2023/01/08 10:59:18;;;;;;;0.10;0.10;;;7.20;99.90;12.80;163505.00;;;;4974671;28;20235;-73
2023/01/08 11:01:48;;;;;;;0.10;0.10;;;7.30;99.90;12.80;163505.00;;;;4979010;28;20225;-76
2023/01/08 11:04:26;;;;;;;0.10;0.10;;;7.30;99.90;12.80;163505.00;;;;4980592;28;20761;-74
2023/01/08 11:06:58;;;;;;;0.10;0.10;;;7.30;99.90;12.80;163505.00;;;;4977984;28;20731;-74
2023/01/08 11:09:31;;;;;;;0.10;0.10;;;7.40;99.90;12.80;163505.00;;;;4953874;28;20229;-73